Time;durP1;ratioP1;P1;durP2;ratioP2;P2;SDS_P1;SDS_P2;PMS_P1;PMS_P2;Temp;Humidity;BMP_temperature;BMP_pressure;BME280_temperature;BME280_humidity;BME280_pressure;Samples;Min_cycle;Max_cycle;Signal;HPM_P1;HPM_P2
2022/04/22 00:02:22;;;;;;;9.02;6.93;;;;;;;;;;5012808;28;20097;-77
2022/04/22 00:04:49;;;;;;;9.13;7.47;;;;;;;;;;5012465;28;20045;-78
2022/04/22 00:07:15;;;;;;;8.43;6.85;;;;;;;;;;5012566;28;20049;-77
2022/04/22 00:09:42;;;;;;;9.15;7.03;;;;;;;;;;5012752;28;20050;-77
2022/04/22 00:12:10;;;;;;;8.63;7.13;;;;;;;;;;5012860;28;20054;-76
2022/04/22 00:14:38;;;;;;;8.43;6.85;;;;;;;;;;5012501;28;20054;-77
2022/04/22 00:17:06;;;;;;;9.10;6.82;;;;;;;;;;5012447;28;20068;-77
2022/04/22 00:19:33;;;;;;;9.35;6.88;;;;;;;;;;5012476;28;20054;-76
2022/04/22 00:22:00;;;;;;;9.10;7.68;;;;;;;;;;5012157;28;20049;-77
2022/04/22 00:24:26;;;;;;;9.68;7.13;;;;;;;;;;5012557;28;20108;-77
2022/04/22 00:26:53;;;;;;;10.80;7.40;;;;;;;;;;5012284;28;20050;-76
2022/04/22 00:29:20;;;;;;;10.02;7.22;;;;;;;;;;5012626;28;20611;-76
2022/04/22 00:31:48;;;;;;;10.50;7.00;;;;;;;;;;5012062;28;20054;-77
2022/04/22 00:34:15;;;;;;;10.55;7.18;;;;;;;;;;5012182;28;20382;-77
2022/04/22 00:36:41;;;;;;;10.05;7.82;;;;;;;;;;5012222;28;20456;-76
2022/04/22 00:39:08;;;;;;;10.15;7.40;;;;;;;;;;5011482;28;20050;-77
2022/04/22 00:41:35;;;;;;;9.88;7.60;;;;;;;;;;5012011;28;20541;-76
2022/04/22 00:44:02;;;;;;;9.55;6.72;;;;;;;;;;5012339;28;20046;-77
2022/04/22 00:46:29;;;;;;;8.95;6.57;;;;;;;;;;4998754;28;20058;-77
2022/04/22 00:48:57;;;;;;;9.07;7.22;;;;;;;;;;4992357;28;20133;-78
2022/04/22 00:51:24;;;;;;;8.52;7.25;;;;;;;;;;4992612;28;20050;-76
2022/04/22 00:53:52;;;;;;;8.90;6.97;;;;;;;;;;4994022;28;20047;-77
2022/04/22 00:56:20;;;;;;;8.38;6.82;;;;;;;;;;4992535;28;20559;-77
2022/04/22 00:58:48;;;;;;;9.13;7.18;;;;;;;;;;4993121;28;20105;-77
2022/04/22 01:01:16;;;;;;;9.32;7.00;;;;;;;;;;4992678;28;20100;-77
2022/04/22 01:09:47;;;;;;;7.65;6.35;;;;;;;;;;4993178;28;20046;-76
2022/04/22 01:12:07;;;;;;;9.75;6.68;;;;;;;;;;4997757;28;20061;-76
2022/04/22 01:14:34;;;;;;;8.88;6.90;;;;;;;;;;4997369;28;20093;-76
2022/04/22 01:17:01;;;;;;;10.32;6.68;;;;;;;;;;4996564;28;20047;-76
2022/04/22 01:19:28;;;;;;;9.38;7.00;;;;;;;;;;4996824;28;20070;-77
2022/04/22 01:21:56;;;;;;;9.55;7.15;;;;;;;;;;4996716;28;20449;-77
2022/04/22 01:24:23;;;;;;;10.98;7.32;;;;;;;;;;4996131;28;20051;-76
2022/04/22 01:26:51;;;;;;;9.13;7.00;;;;;;;;;;4995745;28;20109;-76
2022/04/22 01:29:18;;;;;;;9.32;7.15;;;;;;;;;;4996629;28;20511;-76
2022/04/22 01:31:45;;;;;;;8.88;6.63;;;;;;;;;;4996279;28;20061;-76
2022/04/22 01:34:12;;;;;;;10.25;7.50;;;;;;;;;;4996564;28;20058;-76
2022/04/22 01:36:39;;;;;;;8.50;6.78;;;;;;;;;;4996393;28;20050;-76
2022/04/22 01:39:07;;;;;;;8.75;6.65;;;;;;;;;;4996938;28;20121;-76
2022/04/22 01:41:34;;;;;;;8.90;7.15;;;;;;;;;;4995893;28;20062;-76
2022/04/22 01:44:01;;;;;;;9.98;7.00;;;;;;;;;;4996583;28;20046;-75
2022/04/22 01:46:27;;;;;;;11.50;7.50;;;;;;;;;;5009832;28;20049;-75
2022/04/22 01:48:54;;;;;;;8.75;6.90;;;;;;;;;;5015359;28;20053;-76
2022/04/22 01:51:21;;;;;;;10.40;7.35;;;;;;;;;;5015345;28;20058;-76
2022/04/22 01:53:48;;;;;;;8.95;6.95;;;;;;;;;;5016239;28;20046;-76
2022/04/22 01:56:16;;;;;;;10.07;7.00;;;;;;;;;;5016066;28;20046;-76
2022/04/22 01:58:43;;;;;;;9.45;7.07;;;;;;;;;;5015887;28;20089;-76
2022/04/22 02:01:10;;;;;;;7.75;6.15;;;;;;;;;;5016998;28;20041;-76
2022/04/22 02:03:36;;;;;;;9.23;6.80;;;;;;;;;;5015974;28;20049;-76
2022/04/22 02:06:04;;;;;;;10.07;7.00;;;;;;;;;;5014993;28;20058;-76
2022/04/22 02:08:31;;;;;;;10.35;7.20;;;;;;;;;;5015796;28;20046;-76
2022/04/22 02:10:58;;;;;;;11.25;6.80;;;;;;;;;;5016068;28;20057;-76
2022/04/22 02:13:26;;;;;;;8.60;7.15;;;;;;;;;;5015895;28;20432;-76
2022/04/22 02:15:53;;;;;;;12.30;7.53;;;;;;;;;;5014683;28;20050;-77
2022/04/22 02:18:20;;;;;;;9.15;7.03;;;;;;;;;;5015662;28;20493;-77
2022/04/22 02:20:47;;;;;;;9.55;7.00;;;;;;;;;;5017343;28;20457;-76
2022/04/22 02:23:13;;;;;;;9.93;7.60;;;;;;;;;;5016240;28;20144;-76
2022/04/22 02:25:40;;;;;;;8.60;6.93;;;;;;;;;;5014741;28;20050;-77
2022/04/22 02:30:53;;;;;;;10.73;8.02;;;;;;;;;;5014874;28;20524;-77
2022/04/22 02:33:19;;;;;;;10.70;7.70;;;;;;;;;;5014658;28;20092;-76
2022/04/22 02:35:46;;;;;;;10.15;8.27;;;;;;;;;;5014394;28;20042;-76
2022/04/22 02:38:13;;;;;;;9.98;6.75;;;;;;;;;;5014691;28;20046;-76
2022/04/22 02:46:09;;;;;;;9.02;7.13;;;;;;;;;;5004124;28;20111;-76
2022/04/22 02:48:36;;;;;;;11.25;8.20;;;;;;;;;;4994899;28;20465;-77
2022/04/22 02:51:03;;;;;;;10.68;7.88;;;;;;;;;;4994720;28;20480;-77
2022/04/22 02:53:30;;;;;;;11.30;7.97;;;;;;;;;;4994473;28;20050;-76
2022/04/22 02:55:57;;;;;;;11.18;7.90;;;;;;;;;;4994413;28;20105;-76
2022/04/22 02:58:24;;;;;;;10.05;8.00;;;;;;;;;;4994491;28;20080;-77
2022/04/22 03:00:51;;;;;;;10.90;7.82;;;;;;;;;;4994822;28;20137;-78
2022/04/22 03:03:19;;;;;;;9.93;7.88;;;;;;;;;;4994525;28;20469;-77
2022/04/22 03:05:46;;;;;;;10.18;7.85;;;;;;;;;;4994496;28;20050;-77
2022/04/22 03:08:13;;;;;;;13.50;8.88;;;;;;;;;;4994186;28;20105;-77
2022/04/22 03:10:39;;;;;;;11.32;8.20;;;;;;;;;;4994402;28;20478;-77
2022/04/22 03:13:07;;;;;;;12.15;8.43;;;;;;;;;;4994486;28;20473;-77
2022/04/22 03:15:34;;;;;;;12.30;8.40;;;;;;;;;;4993984;28;20116;-76
2022/04/22 03:18:01;;;;;;;11.75;8.70;;;;;;;;;;4993880;28;20062;-76
2022/04/22 03:20:29;;;;;;;11.70;8.23;;;;;;;;;;4994106;28;20057;-77
2022/04/22 03:22:56;;;;;;;11.07;8.38;;;;;;;;;;4993908;28;20460;-77
2022/04/22 03:25:23;;;;;;;12.48;9.55;;;;;;;;;;4994280;28;20046;-77
2022/04/22 03:27:50;;;;;;;11.80;8.90;;;;;;;;;;4993502;28;20047;-76
2022/04/22 03:30:17;;;;;;;11.45;8.45;;;;;;;;;;4993843;28;20048;-75
2022/04/22 03:32:44;;;;;;;12.50;8.65;;;;;;;;;;4993757;28;20050;-76
2022/04/22 03:35:11;;;;;;;11.55;8.82;;;;;;;;;;4993677;28;20097;-76
2022/04/22 03:37:41;;;;;;;12.15;9.10;;;;;;;;;;4993720;28;20105;-77
2022/04/22 03:40:10;;;;;;;13.73;9.40;;;;;;;;;;4993588;28;20053;-76
2022/04/22 03:42:36;;;;;;;12.70;10.18;;;;;;;;;;4993936;28;20130;-77
2022/04/22 03:45:04;;;;;;;12.82;9.20;;;;;;;;;;4994648;28;20112;-76
2022/04/22 03:47:31;;;;;;;12.32;9.13;;;;;;;;;;5013250;28;20049;-77
2022/04/22 03:49:58;;;;;;;12.05;8.85;;;;;;;;;;5012914;28;20053;-76
2022/04/22 03:52:24;;;;;;;13.82;10.15;;;;;;;;;;5013128;28;20061;-76
2022/04/22 03:54:53;;;;;;;14.73;9.57;;;;;;;;;;5012805;28;20042;-77
2022/04/22 04:00:05;;;;;;;12.93;9.50;;;;;;;;;;5013169;28;20516;-76
2022/04/22 04:02:33;;;;;;;14.52;9.65;;;;;;;;;;5013203;28;20686;-77
2022/04/22 04:05:01;;;;;;;13.20;9.52;;;;;;;;;;5012741;28;20077;-76
2022/04/22 04:07:28;;;;;;;15.65;10.43;;;;;;;;;;5013198;28;20079;-76
2022/04/22 04:18:08;;;;;;;13.60;9.98;;;;;;;;;;5012636;28;20061;-77
2022/04/22 04:23:19;;;;;;;14.23;10.55;;;;;;;;;;5012430;28;20099;-76
2022/04/22 04:25:50;;;;;;;14.82;10.43;;;;;;;;;;5012143;28;20072;-76
2022/04/22 04:28:17;;;;;;;;;;;;;;;;;;5012752;28;20489;-77
2022/04/22 04:30:44;;;;;;;16.08;9.95;;;;;;;;;;5012461;28;19932;-77
2022/04/22 04:33:12;;;;;;;14.05;10.60;;;;;;;;;;5012454;28;20680;-76
2022/04/22 04:35:40;;;;;;;14.45;10.52;;;;;;;;;;5012224;28;20054;-76
2022/04/22 04:38:08;;;;;;;16.27;11.20;;;;;;;;;;5012088;28;20136;-77
2022/04/22 04:40:36;;;;;;;14.23;10.30;;;;;;;;;;5011885;28;20445;-77
2022/04/22 04:43:06;;;;;;;15.98;11.38;;;;;;;;;;5012637;28;20140;-77
2022/04/22 04:45:32;;;;;;;15.73;12.20;;;;;;;;;;5006708;28;20073;-77
2022/04/22 04:47:59;;;;;;;15.20;11.38;;;;;;;;;;4992811;28;20453;-77
2022/04/22 04:50:26;;;;;;;16.23;11.95;;;;;;;;;;4992197;28;20072;-77
2022/04/22 04:52:53;;;;;;;14.38;10.68;;;;;;;;;;4993056;28;20050;-78
2022/04/22 04:55:20;;;;;;;16.27;11.90;;;;;;;;;;4992599;28;20050;-76
2022/04/22 04:57:48;;;;;;;16.75;11.77;;;;;;;;;;4996375;28;20046;-76
2022/04/22 05:00:18;;;;;;;15.48;11.27;;;;;;;;;;4995278;28;20169;-76
2022/04/22 05:02:45;;;;;;;15.83;11.40;;;;;;;;;;4995127;28;20065;-76
2022/04/22 05:05:12;;;;;;;15.35;11.40;;;;;;;;;;4993299;28;20567;-76
2022/04/22 05:07:48;;;;;;;14.82;11.75;;;;;;;;;;4992349;28;20050;-76
2022/04/22 05:10:15;;;;;;;14.52;11.07;;;;;;;;;;4992389;28;20170;-76
2022/04/22 05:12:43;;;;;;;15.30;11.05;;;;;;;;;;4992421;28;20463;-77
2022/04/22 05:15:12;;;;;;;17.35;11.90;;;;;;;;;;4992114;28;20105;-76
2022/04/22 05:17:41;;;;;;;16.10;11.82;;;;;;;;;;4992437;28;20042;-76
2022/04/22 05:20:10;;;;;;;18.40;12.27;;;;;;;;;;4992063;28;20078;-77
2022/04/22 05:22:37;;;;;;;19.67;13.20;;;;;;;;;;4992504;28;20129;-76
2022/04/22 05:25:05;;;;;;;19.67;12.43;;;;;;;;;;4992040;28;20050;-77
2022/04/22 05:27:33;;;;;;;18.40;12.48;;;;;;;;;;4993599;28;20516;-76
2022/04/22 05:32:47;;;;;;;15.55;11.95;;;;;;;;;;4992584;28;20058;-77
2022/04/22 05:35:15;;;;;;;16.93;12.90;;;;;;;;;;4992220;28;20125;-77
2022/04/22 05:37:50;;;;;;;16.70;12.52;;;;;;;;;;4992266;28;20047;-77
2022/04/22 05:40:18;;;;;;;16.65;12.23;;;;;;;;;;4992527;28;20054;-75
2022/04/22 05:42:46;;;;;;;17.90;12.35;;;;;;;;;;4992285;28;20059;-75
2022/04/22 05:45:14;;;;;;;18.52;12.85;;;;;;;;;;4994414;28;20053;-76
2022/04/22 05:47:41;;;;;;;18.92;13.23;;;;;;;;;;5012727;28;20046;-77
2022/04/22 05:50:11;;;;;;;18.17;13.20;;;;;;;;;;5011949;28;20137;-76
2022/04/22 05:52:39;;;;;;;17.80;12.68;;;;;;;;;;5015168;28;20575;-77
2022/04/22 05:55:09;;;;;;;15.90;12.15;;;;;;;;;;5015118;28;20070;-77
2022/04/22 05:57:36;;;;;;;18.00;12.35;;;;;;;;;;5015761;28;20046;-77
2022/04/22 06:00:06;;;;;;;19.08;14.23;;;;;;;;;;5016115;28;20065;-76
2022/04/22 06:02:32;;;;;;;17.30;12.27;;;;;;;;;;5015891;28;20053;-76
2022/04/22 06:04:59;;;;;;;18.00;12.68;;;;;;;;;;5015553;28;20559;-76
2022/04/22 06:07:28;;;;;;;18.70;13.55;;;;;;;;;;5016386;28;20128;-77
2022/04/22 06:12:39;;;;;;;17.98;12.73;;;;;;;;;;5016751;28;20060;-77
2022/04/22 06:15:06;;;;;;;16.98;12.05;;;;;;;;;;5015221;28;20062;-76
2022/04/22 06:17:33;;;;;;;16.67;12.68;;;;;;;;;;5015508;28;20054;-77
2022/04/22 06:20:00;;;;;;;18.63;13.48;;;;;;;;;;5014781;28;20042;-76
2022/04/22 06:22:30;;;;;;;21.35;13.43;;;;;;;;;;5014851;28;20555;-77
2022/04/22 06:24:57;;;;;;;16.95;12.50;;;;;;;;;;5015652;28;20046;-77
2022/04/22 06:27:25;;;;;;;17.25;12.95;;;;;;;;;;5017378;28;20054;-76
2022/04/22 06:29:53;;;;;;;16.35;11.98;;;;;;;;;;5016610;28;20099;-77
2022/04/22 06:32:21;;;;;;;17.55;12.63;;;;;;;;;;5016731;28;20045;-76
2022/04/22 06:34:50;;;;;;;15.65;12.35;;;;;;;;;;5015998;28;20046;-77
2022/04/22 06:37:17;;;;;;;15.65;11.75;;;;;;;;;;5016695;28;20111;-76
2022/04/22 06:48:01;;;;;;;17.35;12.13;;;;;;;;;;4995171;28;20116;-76
2022/04/22 06:50:28;;;;;;;16.50;11.90;;;;;;;;;;4994991;28;20073;-75
2022/04/22 06:52:56;;;;;;;17.88;12.10;;;;;;;;;;5007452;28;20050;-76
2022/04/22 06:55:25;;;;;;;17.77;12.25;;;;;;;;;;5012466;28;20053;-77
2022/04/22 06:57:56;;;;;;;17.70;11.57;;;;;;;;;;5012599;28;20458;-76
2022/04/22 07:00:24;;;;;;;15.27;12.13;;;;;;;;;;5012953;28;20480;-76
2022/04/22 07:02:51;;;;;;;15.20;12.00;;;;;;;;;;5011673;28;20049;-77
2022/04/22 07:05:19;;;;;;;14.60;10.82;;;;;;;;;;5012481;28;20385;-75
2022/04/22 07:07:47;;;;;;;15.85;11.80;;;;;;;;;;5012912;28;20103;-76
2022/04/22 07:10:14;;;;;;;15.65;11.57;;;;;;;;;;5011642;28;20108;-76
2022/04/22 07:12:43;;;;;;;16.10;11.38;;;;;;;;;;5013071;28;20053;-76
2022/04/22 07:15:12;;;;;;;15.15;11.48;;;;;;;;;;5012422;28;20054;-76
2022/04/22 07:17:41;;;;;;;17.52;11.98;;;;;;;;;;5012212;28;20054;-75
2022/04/22 07:20:10;;;;;;;18.60;13.35;;;;;;;;;;5012250;28;20523;-75
2022/04/22 07:22:38;;;;;;;14.95;11.20;;;;;;;;;;5012240;28;20049;-75
2022/04/22 07:25:05;;;;;;;20.73;14.73;;;;;;;;;;5011963;28;20050;-75
2022/04/22 07:27:35;;;;;;;19.38;14.05;;;;;;;;;;5011698;28;20112;-75
2022/04/22 07:30:05;;;;;;;14.80;11.25;;;;;;;;;;5012461;28;20054;-75
2022/04/22 07:32:32;;;;;;;14.75;11.43;;;;;;;;;;5012288;28;20702;-75
2022/04/22 07:34:59;;;;;;;17.83;11.85;;;;;;;;;;5012059;28;20504;-75
2022/04/22 07:37:26;;;;;;;17.27;12.13;;;;;;;;;;5012073;28;20099;-77
2022/04/22 07:39:53;;;;;;;16.40;11.82;;;;;;;;;;5012189;28;20532;-77
2022/04/22 07:42:21;;;;;;;15.02;11.40;;;;;;;;;;5011807;28;20058;-76
2022/04/22 07:47:38;;;;;;;17.45;11.40;;;;;;;;;;4993236;28;20057;-75
2022/04/22 07:50:07;;;;;;;15.50;11.27;;;;;;;;;;4992928;28;20050;-77
2022/04/22 07:52:36;;;;;;;15.30;11.30;;;;;;;;;;4993460;28;20054;-77
2022/04/22 07:55:04;;;;;;;17.05;11.45;;;;;;;;;;4992254;28;20497;-76
2022/04/22 07:57:31;;;;;;;18.13;12.10;;;;;;;;;;4993782;28;20051;-77
2022/04/22 07:59:58;;;;;;;16.48;11.32;;;;;;;;;;4994546;28;20053;-75
2022/04/22 08:02:26;;;;;;;16.15;11.18;;;;;;;;;;4993141;28;20046;-76
2022/04/22 08:04:54;;;;;;;13.05;10.60;;;;;;;;;;4994582;28;20061;-76
2022/04/22 08:07:21;;;;;;;13.52;10.25;;;;;;;;;;4992348;28;20046;-76
2022/04/22 08:09:47;;;;;;;14.35;11.13;;;;;;;;;;4992206;28;20054;-76
2022/04/22 08:12:15;;;;;;;15.80;10.88;;;;;;;;;;4992671;28;20060;-76
2022/04/22 08:14:42;;;;;;;13.52;9.98;;;;;;;;;;4991644;28;20454;-77
2022/04/22 08:17:09;;;;;;;13.73;10.73;;;;;;;;;;4993657;28;20042;-76
2022/04/22 08:19:36;;;;;;;14.63;10.90;;;;;;;;;;4996425;28;20050;-76
2022/04/22 08:22:04;;;;;;;12.77;10.00;;;;;;;;;;4995958;28;20108;-77
2022/04/22 08:24:31;;;;;;;13.85;10.90;;;;;;;;;;4996802;28;20062;-77
2022/04/22 08:26:59;;;;;;;15.25;10.32;;;;;;;;;;4994729;28;20050;-76
2022/04/22 08:29:26;;;;;;;16.73;10.63;;;;;;;;;;4994020;28;20494;-77
2022/04/22 08:31:53;;;;;;;13.90;10.43;;;;;;;;;;4993620;28;20096;-76
2022/04/22 08:34:20;;;;;;;12.95;10.32;;;;;;;;;;4992200;28;20142;-78
2022/04/22 08:36:47;;;;;;;13.98;10.50;;;;;;;;;;4992204;28;20056;-76
2022/04/22 08:39:17;;;;;;;13.45;10.15;;;;;;;;;;4992287;28;20046;-76
2022/04/22 08:41:44;;;;;;;13.55;10.07;;;;;;;;;;4991782;28;20757;-76
2022/04/22 08:44:13;;;;;;;12.50;9.85;;;;;;;;;;4991841;28;20548;-77
2022/04/22 08:52:11;;;;;;;13.77;10.07;;;;;;;;;;5011525;28;20172;-76
2022/04/22 08:54:41;;;;;;;11.43;9.63;;;;;;;;;;5011245;28;20622;-77
2022/04/22 08:57:08;;;;;;;14.68;10.27;;;;;;;;;;5011876;28;20050;-75
2022/04/22 08:59:35;;;;;;;11.30;8.38;;;;;;;;;;5011413;28;20050;-76
2022/04/22 09:02:03;;;;;;;12.18;9.55;;;;;;;;;;5011430;28;20563;-76
2022/04/22 09:04:30;;;;;;;14.57;9.57;;;;;;;;;;5011367;28;20100;-77
2022/04/22 09:06:58;;;;;;;12.98;9.75;;;;;;;;;;5011328;28;20050;-76
2022/04/22 09:09:25;;;;;;;12.77;9.65;;;;;;;;;;5012097;28;20096;-76
2022/04/22 09:11:54;;;;;;;12.10;9.65;;;;;;;;;;5011754;28;20096;-77
2022/04/22 09:14:24;;;;;;;13.57;9.55;;;;;;;;;;5011643;28;20149;-77
2022/04/22 09:16:51;;;;;;;12.40;9.82;;;;;;;;;;5011413;28;20049;-76
2022/04/22 09:19:18;;;;;;;13.40;9.70;;;;;;;;;;5011284;28;20100;-77
2022/04/22 09:21:56;;;;;;;16.95;10.48;;;;;;;;;;5011713;28;20132;-77
2022/04/22 09:24:23;;;;;;;16.60;11.07;;;;;;;;;;5011699;28;20073;-76
2022/04/22 09:27:05;;;;;;;13.95;10.52;;;;;;;;;;5027845;28;20053;-77
2022/04/22 09:29:41;;;;;;;14.25;10.18;;;;;;;;;;5035003;28;20050;-77
2022/04/22 09:32:10;;;;;;;15.85;10.13;;;;;;;;;;5036226;28;20045;-76
2022/04/22 09:34:43;;;;;;;13.52;10.20;;;;;;;;;;5034597;28;20129;-76
2022/04/22 09:42:48;;;;;;;17.52;11.95;;;;;;;;;;5035260;28;20513;-77
2022/04/22 09:45:15;;;;;;;16.80;12.38;;;;;;;;;;5031654;28;20511;-77
2022/04/22 09:47:42;;;;;;;13.00;10.10;;;;;;;;;;5015516;28;20052;-76
2022/04/22 09:50:11;;;;;;;13.70;10.85;;;;;;;;;;5015361;28;20124;-75
2022/04/22 09:52:43;;;;;;;14.20;11.68;;;;;;;;;;5016083;28;20495;-76
2022/04/22 09:55:14;;;;;;;14.60;10.40;;;;;;;;;;5015753;28;20046;-77
2022/04/22 09:57:55;;;;;;;15.93;11.80;;;;;;;;;;5016295;28;20076;-77
2022/04/22 10:00:24;;;;;;;15.40;11.20;;;;;;;;;;5034128;28;20046;-76
2022/04/22 10:02:52;;;;;;;14.30;10.30;;;;;;;;;;5023026;28;20101;-76
2022/04/22 10:05:20;;;;;;;14.45;10.43;;;;;;;;;;5007863;28;20054;-76
2022/04/22 10:07:51;;;;;;;13.30;10.18;;;;;;;;;;4997396;28;20506;-76
2022/04/22 10:10:22;;;;;;;15.52;10.30;;;;;;;;;;4997071;28;20108;-76
2022/04/22 10:12:52;;;;;;;12.45;10.45;;;;;;;;;;5027178;23;20056;-77
2022/04/22 10:15:21;;;;;;;15.98;11.07;;;;;;;;;;5033101;28;20103;-77
2022/04/22 10:17:49;;;;;;;14.20;11.48;;;;;;;;;;5033250;28;20045;-79
2022/04/22 10:20:17;;;;;;;12.70;10.95;;;;;;;;;;5033355;28;20478;-77
2022/04/22 10:22:44;;;;;;;13.05;11.18;;;;;;;;;;5032801;28;20041;-77
2022/04/22 10:25:11;;;;;;;14.95;11.15;;;;;;;;;;5034559;28;20119;-76
2022/04/22 10:27:38;;;;;;;13.88;11.55;;;;;;;;;;5034148;28;20050;-77
2022/04/22 10:30:07;;;;;;;13.98;10.70;;;;;;;;;;5033065;28;20075;-77
2022/04/22 10:32:36;;;;;;;12.55;10.82;;;;;;;;;;5033393;28;20111;-77
2022/04/22 10:35:05;;;;;;;13.85;10.65;;;;;;;;;;5032835;28;20045;-77
2022/04/22 10:37:38;;;;;;;14.60;10.83;;;;;;;;;;5032576;28;20045;-77
2022/04/22 10:40:06;;;;;;;13.27;10.30;;;;;;;;;;5033197;28;20045;-78
2022/04/22 10:42:34;;;;;;;12.90;10.02;;;;;;;;;;5032871;28;20061;-78
2022/04/22 10:47:49;;;;;;;12.95;10.93;;;;;;;;;;5018722;28;20057;-75
2022/04/22 10:50:28;;;;;;;14.27;11.23;;;;;;;;;;5012397;28;20049;-75
2022/04/22 10:53:02;;;;;;;13.95;11.18;;;;;;;;;;5013241;28;20054;-78
2022/04/22 10:55:30;;;;;;;13.10;10.82;;;;;;;;;;5015612;28;20048;-77
2022/04/22 10:58:21;;;;;;;14.27;10.95;;;;;;;;;;5018810;28;20046;-84
2022/04/22 11:00:49;;;;;;;15.43;10.68;;;;;;;;;;5011106;28;20050;-80
2022/04/22 11:03:19;;;;;;;13.23;10.77;;;;;;;;;;5015901;28;20080;-77
2022/04/22 11:05:50;;;;;;;15.02;11.48;;;;;;;;;;5017950;28;20153;-84
2022/04/22 11:08:19;;;;;;;17.67;12.00;;;;;;;;;;5018320;28;20053;-81
2022/04/22 11:11:19;;;;;;;18.73;12.00;;;;;;;;;;5016410;28;20136;-78
2022/04/22 11:13:50;;;;;;;13.90;11.65;;;;;;;;;;5018341;28;20046;-83
2022/04/22 11:16:29;;;;;;;12.77;10.68;;;;;;;;;;5006740;28;20413;-80
2022/04/22 11:19:36;;;;;;;14.48;11.10;;;;;;;;;;4995895;28;20093;-80
2022/04/22 11:22:07;;;;;;;15.52;11.25;;;;;;;;;;4997450;28;20485;-76
2022/04/22 11:24:34;;;;;;;15.02;11.75;;;;;;;;;;5003782;28;20034;-77
2022/04/22 11:27:10;;;;;;;17.08;12.13;;;;;;;;;;5019245;28;20065;-77
2022/04/22 11:29:37;;;;;;;17.42;11.65;;;;;;;;;;5012232;28;20145;-76
2022/04/22 11:32:08;;;;;;;15.98;11.98;;;;;;;;;;4992629;28;20050;-77
2022/04/22 11:35:08;;;;;;;14.27;10.80;;;;;;;;;;4992658;28;20113;-78
2022/04/22 11:37:37;;;;;;;17.02;11.60;;;;;;;;;;4992365;28;20054;-78
2022/04/22 11:40:08;;;;;;;14.98;11.95;;;;;;;;;;4992300;28;20498;-78
2022/04/22 11:42:43;;;;;;;;;;;;;;;;;;4992832;28;20050;-78
2022/04/22 11:45:13;;;;;;;14.00;10.40;;;;;;;;;;4993645;28;19926;-78
2022/04/22 11:47:40;;;;;;;15.27;11.88;;;;;;;;;;5011810;28;20049;-77
2022/04/22 11:50:08;;;;;;;13.80;10.40;;;;;;;;;;5010548;28;20390;-76
2022/04/22 11:52:37;;;;;;;12.95;10.20;;;;;;;;;;5003787;28;20047;-77
2022/04/22 11:55:05;;;;;;;13.98;10.63;;;;;;;;;;5010631;28;20049;-77
2022/04/22 11:57:36;;;;;;;11.23;9.52;;;;;;;;;;5011085;28;20054;-76
2022/04/22 12:05:43;;;;;;;14.65;10.40;;;;;;;;;;5011254;28;20053;-77
2022/04/22 12:08:13;;;;;;;12.50;10.55;;;;;;;;;;5012179;28;20050;-78
2022/04/22 12:10:40;;;;;;;15.70;11.23;;;;;;;;;;5012682;28;20078;-78
2022/04/22 12:13:08;;;;;;;20.90;16.33;;;;;;;;;;5014063;28;20587;-78
2022/04/22 12:15:39;;;;;;;17.17;13.38;;;;;;;;;;5013053;28;20054;-78
2022/04/22 12:18:07;;;;;;;14.63;11.82;;;;;;;;;;5012572;28;20515;-78
2022/04/22 12:20:33;;;;;;;14.75;11.82;;;;;;;;;;5012465;28;20100;-78
2022/04/22 12:23:01;;;;;;;13.35;11.77;;;;;;;;;;5012474;28;20100;-78
2022/04/22 12:25:29;;;;;;;14.30;11.30;;;;;;;;;;5012011;28;20515;-78
2022/04/22 12:28:07;;;;;;;16.33;11.38;;;;;;;;;;5012777;28;20108;-78
2022/04/22 12:30:38;;;;;;;13.73;11.20;;;;;;;;;;5012620;28;20073;-78
2022/04/22 12:33:05;;;;;;;13.65;10.98;;;;;;;;;;5012524;28;20045;-78
2022/04/22 12:35:33;;;;;;;14.00;11.55;;;;;;;;;;5011856;28;20108;-78
2022/04/22 12:38:04;;;;;;;14.40;10.70;;;;;;;;;;5012195;28;20477;-77
2022/04/22 12:40:44;;;;;;;14.02;11.32;;;;;;;;;;5011911;28;20050;-77
2022/04/22 12:43:27;;;;;;;14.65;11.73;;;;;;;;;;5017043;28;20104;-77
2022/04/22 12:54:12;;;;;;;17.05;12.00;;;;;;;;;;4991221;28;20226;-78
2022/04/22 12:56:41;;;;;;;15.80;13.00;;;;;;;;;;4991082;28;20104;-77
2022/04/22 12:59:08;;;;;;;15.60;11.10;;;;;;;;;;4991970;28;20042;-78
2022/04/22 13:01:37;;;;;;;14.50;11.75;;;;;;;;;;4995432;28;20046;-77
2022/04/22 13:04:06;;;;;;;15.38;11.85;;;;;;;;;;4996438;28;20046;-77
2022/04/22 13:06:43;;;;;;;19.55;13.75;;;;;;;;;;4995867;28;20054;-77
2022/04/22 13:09:12;;;;;;;15.98;12.25;;;;;;;;;;5002578;28;20050;-77
2022/04/22 13:11:40;;;;;;;14.18;11.85;;;;;;;;;;5015155;28;20131;-77
2022/04/22 13:14:08;;;;;;;15.27;12.35;;;;;;;;;;5015743;28;20050;-76
2022/04/22 13:16:35;;;;;;;15.65;12.95;;;;;;;;;;5014744;28;20053;-77
2022/04/22 13:19:03;;;;;;;15.00;11.93;;;;;;;;;;5016323;28;20049;-77
2022/04/22 13:21:30;;;;;;;14.52;11.43;;;;;;;;;;5015658;28;20394;-76
2022/04/22 13:23:57;;;;;;;17.88;12.27;;;;;;;;;;5016490;28;20046;-77
2022/04/22 13:26:25;;;;;;;20.27;16.33;;;;;;;;;;5015128;28;20097;-77
2022/04/22 13:28:55;;;;;;;15.98;14.23;;;;;;;;;;5016431;28;20054;-77
2022/04/22 13:31:22;;;;;;;16.90;13.10;;;;;;;;;;5016165;28;20499;-78
2022/04/22 13:33:49;;;;;;;13.68;11.77;;;;;;;;;;5016666;28;20461;-77
2022/04/22 13:36:17;;;;;;;13.43;11.75;;;;;;;;;;5017061;28;20050;-78
2022/04/22 13:38:44;;;;;;;15.15;12.30;;;;;;;;;;5019214;28;20100;-78
2022/04/22 13:41:12;;;;;;;13.38;10.93;;;;;;;;;;5018563;28;20477;-78
2022/04/22 13:43:39;;;;;;;14.80;11.60;;;;;;;;;;5018509;28;20137;-77
2022/04/22 13:54:20;;;;;;;13.50;11.23;;;;;;;;;;5016621;28;20057;-78
2022/04/22 13:56:48;;;;;;;14.07;11.57;;;;;;;;;;5016108;28;20042;-78
2022/04/22 13:59:15;;;;;;;19.42;15.80;;;;;;;;;;5016790;28;20081;-78
2022/04/22 14:01:43;;;;;;;15.27;12.35;;;;;;;;;;5000273;28;20050;-77
2022/04/22 14:04:10;;;;;;;14.60;11.50;;;;;;;;;;4997483;28;20568;-77
2022/04/22 14:06:37;;;;;;;14.52;10.60;;;;;;;;;;4997690;28;20058;-77
2022/04/22 14:09:04;;;;;;;12.57;10.40;;;;;;;;;;4996748;28;20085;-78
2022/04/22 14:11:31;;;;;;;13.93;10.68;;;;;;;;;;5000107;28;20050;-78
2022/04/22 14:13:58;;;;;;;18.45;10.15;;;;;;;;;;5016962;28;20132;-78
2022/04/22 14:16:25;;;;;;;13.95;10.30;;;;;;;;;;5016566;28;20054;-78
2022/04/22 14:18:53;;;;;;;11.05;9.75;;;;;;;;;;5017114;28;20566;-78
2022/04/22 14:21:20;;;;;;;13.65;9.82;;;;;;;;;;5021595;28;20050;-77
2022/04/22 14:23:47;;;;;;;12.18;10.43;;;;;;;;;;5032187;28;20072;-78
2022/04/22 14:26:14;;;;;;;12.38;10.90;;;;;;;;;;5034496;28;20108;-78
2022/04/22 14:28:41;;;;;;;14.90;12.40;;;;;;;;;;5018791;28;20046;-78
2022/04/22 14:31:11;;;;;;;16.23;13.32;;;;;;;;;;5002827;28;20058;-78
2022/04/22 14:33:38;;;;;;;11.40;9.68;;;;;;;;;;5005902;28;20048;-78
2022/04/22 14:36:07;;;;;;;9.57;8.27;;;;;;;;;;5015716;28;20057;-78
2022/04/22 14:38:34;;;;;;;13.00;11.43;;;;;;;;;;4998103;28;20054;-78
2022/04/22 14:41:01;;;;;;;13.50;10.63;;;;;;;;;;4997641;28;20073;-78
2022/04/22 14:43:28;;;;;;;13.48;11.77;;;;;;;;;;4996904;28;20129;-78
2022/04/22 14:45:55;;;;;;;13.30;11.00;;;;;;;;;;5005298;28;20692;-78
2022/04/22 14:48:21;;;;;;;12.10;9.48;;;;;;;;;;5015815;28;20042;-78
2022/04/22 14:50:48;;;;;;;13.55;10.23;;;;;;;;;;5015608;28;20058;-78
2022/04/22 14:53:16;;;;;;;14.02;10.68;;;;;;;;;;5008099;28;20077;-78
2022/04/22 14:55:44;;;;;;;12.98;11.05;;;;;;;;;;4995496;28;20047;-78
2022/04/22 14:58:11;;;;;;;13.77;11.38;;;;;;;;;;4995011;28;20485;-78
2022/04/22 15:00:37;;;;;;;13.90;11.07;;;;;;;;;;4993733;28;20046;-77
2022/04/22 15:03:04;;;;;;;14.40;11.93;;;;;;;;;;4994917;28;20051;-77
2022/04/22 15:05:31;;;;;;;22.70;20.25;;;;;;;;;;4994364;28;20089;-77
2022/04/22 15:07:58;;;;;;;13.07;10.55;;;;;;;;;;4993634;28;20042;-77
2022/04/22 15:10:26;;;;;;;12.98;11.48;;;;;;;;;;4993783;28;20050;-78
2022/04/22 15:12:54;;;;;;;13.55;11.68;;;;;;;;;;4997447;28;20054;-81
2022/04/22 15:15:21;;;;;;;13.73;11.30;;;;;;;;;;4996759;28;20050;-82
2022/04/22 15:26:02;;;;;;;13.68;11.15;;;;;;;;;;4995048;28;20555;-83
2022/04/22 15:28:29;;;;;;;13.02;10.48;;;;;;;;;;4997821;28;20050;-80
2022/04/22 15:31:09;;;;;;;15.50;11.98;;;;;;;;;;4998542;28;20496;-83
2022/04/22 15:33:36;;;;;;;12.65;10.10;;;;;;;;;;4999083;28;20046;-77
2022/04/22 15:36:05;;;;;;;13.05;10.50;;;;;;;;;;4997587;28;20125;-77
2022/04/22 15:38:32;;;;;;;11.88;9.57;;;;;;;;;;4997837;28;20108;-77
2022/04/22 15:40:59;;;;;;;14.10;9.52;;;;;;;;;;4997650;28;20042;-76
2022/04/22 15:43:28;;;;;;;12.50;10.40;;;;;;;;;;4997820;28;20105;-77
2022/04/22 15:45:55;;;;;;;13.45;10.20;;;;;;;;;;5004255;28;20050;-77
2022/04/22 15:48:22;;;;;;;12.85;10.45;;;;;;;;;;5015499;28;20088;-76
2022/04/22 15:50:48;;;;;;;13.35;10.65;;;;;;;;;;5015982;28;20054;-78
2022/04/22 15:53:15;;;;;;;13.32;9.95;;;;;;;;;;5017648;28;20069;-77
2022/04/22 15:55:42;;;;;;;14.18;10.63;;;;;;;;;;5017680;28;20081;-77
2022/04/22 15:58:09;;;;;;;13.18;10.05;;;;;;;;;;5018253;28;20050;-78
2022/04/22 16:00:37;;;;;;;13.07;9.98;;;;;;;;;;5018556;28;20046;-77